createdAt,value
2022-08-30T00:02:31.894Z,3.47
2022-08-30T00:07:35.818Z,3.17
2022-08-30T00:12:40.397Z,2.80
2022-08-30T00:17:44.317Z,2.40
2022-08-30T00:22:48.401Z,2.30
2022-08-30T00:27:52.138Z,1.63
2022-08-30T00:32:55.814Z,2.40
2022-08-30T00:37:59.379Z,1.97
2022-08-30T00:43:06.390Z,1.90
2022-08-30T00:48:09.957Z,1.67
2022-08-30T00:53:19.213Z,1.87
2022-08-30T00:58:28.786Z,1.30
2022-08-30T01:03:33.242Z,1.60
2022-08-30T01:08:36.737Z,1.43
2022-08-30T01:13:41.397Z,1.47
2022-08-30T01:18:46.019Z,1.40
2022-08-30T01:23:51.639Z,1.20
2022-08-30T01:29:00.818Z,1.23
2022-08-30T01:34:07.997Z,1.00
2022-08-30T01:39:14.201Z,0.97
2022-08-30T01:44:17.839Z,1.00
2022-08-30T01:49:27.813Z,1.13
2022-08-30T01:54:33.218Z,0.80
2022-08-30T01:59:44.379Z,1.00
2022-08-30T02:04:48.137Z,0.80
2022-08-30T02:09:53.085Z,0.88
2022-08-30T02:14:56.798Z,1.00
2022-08-30T02:20:00.938Z,0.73
2022-08-30T02:25:20.914Z,1.10
2022-08-30T02:30:24.827Z,1.00
2022-08-30T02:35:28.738Z,1.10
2022-08-30T02:40:32.522Z,0.67
2022-08-30T02:45:35.875Z,0.70
2022-08-30T02:50:44.285Z,0.50
2022-08-30T02:55:48.878Z,0.60
2022-08-30T03:00:52.721Z,0.57
2022-08-30T03:05:56.197Z,0.50
2022-08-30T03:11:00.857Z,0.40
2022-08-30T03:16:04.932Z,0.33
2022-08-30T03:21:16.489Z,0.67
2022-08-30T03:26:20.099Z,0.63
2022-08-30T03:31:24.178Z,0.70
2022-08-30T03:36:27.738Z,0.87
2022-08-30T03:41:33.070Z,0.60
2022-08-30T03:46:37.570Z,0.70
2022-08-30T03:51:41.418Z,0.60
2022-08-30T03:56:45.278Z,0.50
2022-08-30T04:01:49.184Z,0.70
2022-08-30T04:06:53.283Z,1.10
2022-08-30T04:11:58.339Z,0.80
2022-08-30T04:17:02.131Z,1.00
2022-08-30T04:22:06.803Z,0.87
2022-08-30T04:27:10.743Z,0.70
2022-08-30T04:32:14.952Z,0.80
2022-08-30T04:37:18.509Z,0.67
2022-08-30T04:42:24.113Z,0.87
2022-08-30T04:47:27.734Z,0.77
2022-08-30T04:52:31.565Z,0.80
2022-08-30T04:57:35.493Z,1.00
2022-08-30T05:02:40.661Z,0.70
2022-08-30T05:07:44.283Z,1.20
2022-08-30T05:12:47.734Z,0.80
2022-08-30T05:17:51.584Z,1.00
2022-08-30T05:22:55.322Z,0.90
2022-08-30T05:27:59.644Z,0.80
2022-08-30T05:33:04.005Z,0.80
2022-08-30T05:38:07.803Z,1.02
2022-08-30T05:43:14.796Z,0.87
2022-08-30T05:48:19.533Z,0.60
2022-08-30T05:53:23.083Z,0.90
2022-08-30T05:58:27.907Z,1.00
2022-08-30T06:03:33.574Z,1.10
2022-08-30T06:08:37.319Z,0.90
2022-08-30T06:13:41.193Z,0.82
2022-08-30T06:18:46.437Z,0.57
2022-08-30T06:23:50.430Z,0.95
2022-08-30T06:28:55.183Z,1.00
2022-08-30T06:33:58.680Z,0.80
2022-08-30T06:39:08.355Z,0.65
2022-08-30T06:44:11.863Z,0.80
2022-08-30T06:49:15.463Z,1.50
2022-08-30T06:54:19.689Z,0.70
2022-08-30T06:59:24.375Z,0.98
2022-08-30T07:04:27.691Z,0.75
2022-08-30T07:14:40.712Z,0.88
2022-08-30T07:19:43.964Z,0.68
2022-08-30T07:24:48.107Z,0.85
2022-08-30T07:29:51.553Z,0.73
2022-08-30T07:34:55.122Z,0.70
2022-08-30T07:39:58.846Z,0.70
2022-08-30T07:45:03.651Z,0.60
2022-08-30T07:50:08.924Z,0.80
2022-08-30T07:55:12.363Z,0.60
2022-08-30T08:00:16.715Z,1.08
2022-08-30T08:05:24.246Z,0.70
2022-08-30T08:10:28.433Z,1.30
2022-08-30T08:15:32.482Z,0.80
2022-08-30T08:20:36.200Z,0.80
2022-08-30T08:25:42.437Z,0.80
2022-08-30T08:30:48.251Z,0.75
2022-08-30T08:35:51.531Z,0.90
2022-08-30T08:41:07.862Z,0.82
2022-08-30T08:46:45.510Z,0.63
2022-08-30T08:52:08.034Z,0.88
2022-08-30T08:57:15.249Z,0.55
2022-08-30T09:02:34.763Z,0.55
2022-08-30T09:07:41.920Z,0.40
2022-08-30T09:12:46.145Z,0.50
2022-08-30T09:18:04.783Z,0.70
2022-08-30T09:23:15.068Z,0.60
2022-08-30T09:28:27.523Z,0.63
2022-08-30T09:33:32.641Z,0.52
2022-08-30T09:38:36.293Z,0.55
2022-08-30T09:43:39.416Z,0.75
2022-08-30T09:48:45.562Z,0.77
2022-08-30T09:54:16.718Z,0.68
2022-08-30T09:59:17.693Z,0.50
2022-08-30T10:04:53.305Z,0.45
2022-08-30T10:09:57.180Z,0.60
2022-08-30T10:15:22.122Z,0.50
2022-08-30T10:21:06.154Z,0.50
2022-08-30T10:26:44.037Z,0.63
2022-08-30T10:31:56.612Z,0.63
2022-08-30T10:37:39.026Z,0.50
2022-08-30T10:42:42.723Z,0.47
2022-08-30T10:47:57.282Z,0.60
2022-08-30T10:53:18.201Z,0.50
2022-08-30T10:58:24.346Z,0.65
2022-08-30T11:03:51.633Z,0.60
2022-08-30T11:09:27.439Z,0.60
2022-08-30T11:14:32.545Z,0.60
2022-08-30T11:19:41.822Z,0.65
2022-08-30T11:25:16.192Z,0.40
2022-08-30T11:30:46.923Z,0.43
2022-08-30T11:35:58.918Z,0.47
2022-08-30T11:41:10.567Z,0.50
2022-08-30T11:46:25.019Z,0.65
2022-08-30T11:52:08.293Z,0.73
2022-08-30T11:57:17.305Z,0.50
2022-08-30T12:02:42.270Z,0.60
2022-08-30T12:08:02.272Z,0.70
2022-08-30T12:13:06.772Z,0.50
2022-08-30T12:18:30.062Z,0.55
2022-08-30T12:24:03.681Z,0.70
2022-08-30T12:29:25.820Z,0.93
2022-08-30T12:34:32.714Z,0.68
2022-08-30T12:39:42.163Z,0.68
2022-08-30T12:44:48.631Z,0.70
2022-08-30T12:49:53.604Z,0.65
2022-08-30T12:55:23.685Z,0.68
2022-08-30T13:00:34.850Z,0.50
2022-08-30T13:05:47.861Z,0.50
2022-08-30T13:11:08.338Z,0.57
2022-08-30T13:16:37.420Z,0.60
2022-08-30T13:21:56.462Z,0.50
2022-08-30T13:27:04.595Z,0.57
2022-08-30T13:32:07.969Z,0.60
2022-08-30T13:42:43.489Z,0.60
2022-08-30T13:47:48.871Z,0.57
2022-08-30T13:52:51.924Z,0.95
2022-08-30T13:57:56.655Z,0.68
2022-08-30T14:03:01.159Z,0.98
2022-08-30T14:08:05.815Z,0.57
2022-08-30T14:13:12.882Z,1.73
2022-08-30T14:18:18.259Z,0.52
2022-08-30T14:23:22.104Z,0.60
2022-08-30T14:28:27.224Z,0.63
2022-08-30T14:33:30.795Z,0.63
2022-08-30T14:38:34.093Z,0.40
2022-08-30T14:43:38.542Z,0.68
2022-08-30T14:48:43.108Z,0.50
2022-08-30T14:53:47.752Z,0.90
2022-08-30T14:58:53.879Z,0.52
2022-08-30T15:03:58.294Z,0.60
2022-08-30T15:09:02.373Z,0.60
2022-08-30T15:14:07.033Z,0.70
2022-08-30T15:19:11.513Z,0.75
2022-08-30T15:24:27.614Z,0.70
2022-08-30T15:29:34.103Z,0.63
2022-08-30T15:34:37.690Z,0.47
2022-08-30T15:39:41.170Z,0.88
2022-08-30T15:44:44.483Z,0.50
2022-08-30T15:50:00.163Z,0.40
2022-08-30T15:55:03.812Z,0.52
2022-08-30T16:00:09.792Z,1.08
2022-08-30T16:05:13.003Z,1.80
2022-08-30T16:10:16.761Z,1.60
2022-08-30T16:15:22.021Z,1.38
2022-08-30T16:20:26.642Z,1.33
2022-08-30T16:25:40.634Z,1.35
2022-08-30T16:30:44.765Z,0.73
2022-08-30T16:35:57.854Z,1.73
2022-08-30T16:41:05.947Z,1.95
2022-08-30T16:46:13.405Z,0.90
2022-08-30T16:51:20.354Z,0.90
2022-08-30T16:56:26.568Z,1.17
2022-08-30T17:01:35.832Z,0.90
2022-08-30T17:06:40.004Z,0.90
2022-08-30T17:11:44.606Z,0.70
2022-08-30T17:16:48.292Z,1.17
2022-08-30T17:21:52.132Z,1.10
2022-08-30T17:26:55.882Z,0.82
2022-08-30T17:32:01.811Z,1.42
2022-08-30T17:37:14.183Z,1.10
2022-08-30T17:42:17.793Z,1.10
2022-08-30T17:47:21.681Z,0.90
2022-08-30T17:52:33.632Z,1.20
2022-08-30T17:57:42.332Z,0.82
2022-08-30T18:02:47.519Z,0.98
2022-08-30T18:07:51.420Z,0.90
2022-08-30T18:12:55.318Z,0.82
2022-08-30T18:17:58.944Z,0.98
2022-08-30T18:23:03.580Z,0.85
2022-08-30T18:28:07.925Z,0.85
2022-08-30T18:33:11.832Z,0.80
2022-08-30T18:38:15.692Z,1.07
2022-08-30T18:43:18.802Z,0.65
2022-08-30T18:48:28.738Z,0.65
2022-08-30T18:53:32.772Z,0.90
2022-08-30T18:58:37.955Z,0.93
2022-08-30T19:03:42.413Z,1.05
2022-08-30T19:08:48.758Z,1.10
2022-08-30T19:13:53.412Z,1.00
2022-08-30T19:18:57.552Z,1.20
2022-08-30T19:24:01.308Z,1.43
2022-08-30T19:29:07.892Z,1.50
2022-08-30T19:34:12.513Z,1.07
2022-08-30T19:39:16.275Z,1.37
2022-08-30T19:44:21.173Z,1.50
2022-08-30T19:49:25.121Z,1.47
2022-08-30T19:54:30.573Z,1.10
2022-08-30T19:59:34.262Z,1.20
2022-08-30T20:04:40.880Z,1.37
2022-08-30T20:09:46.004Z,0.97
2022-08-30T20:14:49.817Z,1.30
2022-08-30T20:19:55.664Z,1.60
2022-08-30T20:24:59.003Z,2.00
2022-08-30T20:30:04.264Z,1.80
2022-08-30T20:35:10.703Z,1.67
2022-08-30T20:40:16.189Z,1.70
2022-08-30T20:45:20.062Z,2.33
2022-08-30T20:50:23.571Z,1.53
2022-08-30T20:55:27.643Z,1.90
2022-08-30T21:00:32.442Z,1.80
2022-08-30T21:05:36.435Z,1.90
2022-08-30T21:10:40.113Z,1.70
2022-08-30T21:15:47.311Z,2.03
2022-08-30T21:20:51.937Z,2.60
2022-08-30T21:25:55.625Z,2.30
2022-08-30T21:31:12.037Z,2.20
2022-08-30T21:36:34.935Z,2.30
2022-08-30T21:41:39.356Z,2.80
2022-08-30T21:46:44.184Z,3.10
2022-08-30T21:51:49.433Z,2.97
2022-08-30T21:56:55.302Z,3.07
2022-08-30T22:01:59.951Z,2.30
2022-08-30T22:07:04.185Z,2.83
2022-08-30T22:12:08.486Z,2.60
2022-08-30T22:17:11.824Z,2.37
2022-08-30T22:22:15.593Z,2.20
2022-08-30T22:27:19.211Z,2.60
2022-08-30T22:32:24.304Z,2.53
2022-08-30T22:37:27.944Z,2.60
2022-08-30T22:42:31.464Z,2.40
2022-08-30T22:47:34.938Z,2.47
2022-08-30T22:52:38.525Z,2.37
2022-08-30T22:57:42.374Z,2.50
2022-08-30T23:02:53.773Z,2.70
2022-08-30T23:07:57.462Z,2.67
2022-08-30T23:13:01.846Z,2.60
2022-08-30T23:18:05.604Z,2.17
2022-08-30T23:23:09.154Z,2.50
2022-08-30T23:28:35.842Z,2.70
2022-08-30T23:33:57.684Z,2.10
2022-08-30T23:39:22.183Z,2.87
2022-08-30T23:44:44.192Z,2.23
2022-08-30T23:50:06.573Z,2.97
2022-08-30T23:55:28.844Z,2.80
